Time;durP1;ratioP1;P1;durP2;ratioP2;P2;SDS_P1;SDS_P2;PMS_P1;PMS_P2;Temp;Humidity;BMP_temperature;BMP_pressure;BME280_temperature;BME280_humidity;BME280_pressure;Samples;Min_cycle;Max_cycle;Signal;HPM_P1;HPM_P2
2022/10/28 00:00:41;;;;;;;15.85;4.55;;;;;;;14.38;100.00;101698.22;5206363;28;20033;-74
2022/10/28 00:03:12;;;;;;;13.80;5.10;;;;;;;14.33;100.00;101700.59;5206663;28;20022;-75
2022/10/28 00:05:42;;;;;;;17.00;5.35;;;;;;;14.30;100.00;101690.13;5206138;28;20112;-75
2022/10/28 00:08:13;;;;;;;16.05;5.53;;;;;;;14.29;100.00;101688.44;5205908;28;20022;-74
2022/10/28 00:10:43;;;;;;;15.63;5.78;;;;;;;14.24;100.00;101681.69;5206216;28;20067;-74
2022/10/28 00:13:14;;;;;;;14.60;5.82;;;;;;;14.17;100.00;101683.38;5206494;28;20030;-75
2022/10/28 00:15:44;;;;;;;18.10;5.32;;;;;;;14.05;100.00;101679.31;5205913;28;20029;-76
2022/10/28 00:18:14;;;;;;;11.43;4.65;;;;;;;13.99;100.00;101678.16;5203731;28;20070;-75
2022/10/28 00:20:45;;;;;;;11.82;5.05;;;;;;;13.92;100.00;101684.41;5206009;28;20053;-74
2022/10/28 00:23:15;;;;;;;12.77;4.80;;;;;;;13.82;100.00;101681.03;5205997;28;20028;-75
2022/10/28 00:25:46;;;;;;;13.70;4.95;;;;;;;13.72;100.00;101665.84;5205679;28;20040;-74
2022/10/28 00:28:16;;;;;;;12.30;5.15;;;;;;;13.66;100.00;101665.66;5205810;28;20018;-75
2022/10/28 00:30:47;;;;;;;15.63;5.05;;;;;;;13.60;100.00;101672.53;5205385;28;20052;-75
2022/10/28 00:33:17;;;;;;;12.85;5.95;;;;;;;13.63;100.00;101676.78;5202252;28;20079;-75
2022/10/28 00:35:48;;;;;;;15.38;5.78;;;;;;;13.60;100.00;101672.53;5205826;28;20568;-75
2022/10/28 00:38:18;;;;;;;17.15;5.03;;;;;;;13.61;100.00;101676.13;5205278;28;20025;-75
2022/10/28 00:40:48;;;;;;;28.23;6.00;;;;;;;13.67;100.00;101675.44;5205479;28;20040;-77
2022/10/28 00:43:38;;;;;;;16.48;6.78;;;;;;;13.69;100.00;101676.94;5205171;28;20060;-76
2022/10/28 00:46:44;;;;;;;14.60;6.20;;;;;;;13.69;100.00;101676.94;5205100;28;20044;-75
2022/10/28 00:49:22;;;;;;;25.67;6.95;;;;;;;13.68;100.00;101672.56;5203651;28;20036;-75
2022/10/28 00:51:59;;;;;;;13.95;6.25;;;;;;;13.63;100.00;101666.84;5205356;28;20022;-76
2022/10/28 00:54:31;;;;;;;18.05;6.85;;;;;;;13.60;100.00;101679.78;5205287;28;20021;-76
2022/10/28 00:57:04;;;;;;;16.58;6.80;;;;;;;13.54;100.00;101675.91;5204669;28;20104;-76
2022/10/28 00:59:42;;;;;;;16.55;5.97;;;;;;;13.51;100.00;101670.03;5205218;28;20079;-76
2022/10/28 01:02:12;;;;;;;13.93;6.03;;;;;;;13.50;100.00;101660.22;5205032;28;20452;-76
2022/10/28 01:04:43;;;;;;;11.60;5.78;;;;;;;13.45;100.00;101658.03;5205767;28;20057;-76
2022/10/28 01:07:15;;;;;;;15.82;6.57;;;;;;;13.42;100.00;101656.53;5205030;28;20032;-75
2022/10/28 01:09:46;;;;;;;14.25;6.50;;;;;;;13.38;100.00;101657.00;5208186;28;20484;-75
2022/10/28 01:12:31;;;;;;;22.40;7.30;;;;;;;13.33;100.00;101649.41;5206050;28;20038;-76
2022/10/28 01:15:40;;;;;;;12.40;6.27;;;;;;;13.31;100.00;101658.69;5205287;28;20057;-76
2022/10/28 01:18:26;;;;;;;14.05;7.28;;;;;;;13.31;100.00;101656.84;5191799;28;20279;-76
2022/10/28 01:21:42;;;;;;;19.75;6.38;;;;;;;13.27;100.00;101651.94;5190215;28;20029;-75
2022/10/28 01:24:35;;;;;;;16.90;6.25;;;;;;;13.21;100.00;101651.59;5202449;28;20064;-77
2022/10/28 01:27:29;;;;;;;16.90;5.88;;;;;;;13.13;100.00;101659.59;5202540;28;20354;-77
2022/10/28 01:30:20;;;;;;;20.30;6.53;;;;;;;13.09;100.00;101650.16;5204378;28;20112;-76
2022/10/28 01:33:03;;;;;;;15.27;6.32;;;;;;;13.10;100.00;101657.25;5197416;28;20057;-76
2022/10/28 01:35:37;;;;;;;18.42;5.80;;;;;;;13.06;100.00;101647.81;5202879;28;20059;-77
2022/10/28 01:38:33;;;;;;;15.05;6.18;;;;;;;13.04;100.00;101647.09;5203707;28;20032;-76
2022/10/28 01:41:17;;;;;;;15.57;5.88;;;;;;;13.05;100.00;101658.72;5204177;28;20420;-76
2022/10/28 01:44:01;;;;;;;24.95;6.57;;;;;;;12.99;100.00;101654.84;5204212;28;20029;-75
2022/10/28 01:47:04;;;;;;;14.02;6.35;;;;;;;12.97;100.00;101648.78;5203774;28;20041;-76
2022/10/28 01:50:05;;;;;;;23.85;6.68;;;;;;;13.04;100.00;101651.66;5204202;28;20507;-77
2022/10/28 01:52:39;;;;;;;20.23;6.50;;;;;;;13.02;100.00;101650.97;5202885;28;20092;-76
2022/10/28 01:55:19;;;;;;;14.70;5.70;;;;;;;12.94;100.00;101644.53;5204395;28;20017;-76
2022/10/28 01:57:52;;;;;;;15.80;5.88;;;;;;;12.91;100.00;101652.13;5203677;28;20064;-75
2022/10/28 02:00:25;;;;;;;16.15;5.60;;;;;;;12.87;100.00;101645.38;5203308;28;20021;-76
2022/10/28 02:02:57;;;;;;;19.60;5.53;;;;;;;12.83;100.00;101644.84;5203780;28;20060;-76
2022/10/28 02:05:48;;;;;;;17.65;5.93;;;;;;;12.81;100.00;101640.63;5203633;28;20033;-76
2022/10/28 02:08:19;;;;;;;12.75;5.78;;;;;;;12.79;100.00;101635.38;5203456;28;20033;-76
2022/10/28 02:10:50;;;;;;;14.32;5.75;;;;;;;12.81;100.00;101636.09;5203853;28;20384;-75
2022/10/28 02:13:50;;;;;;;20.58;7.05;;;;;;;12.87;100.00;101638.13;5203818;28;20492;-75
2022/10/28 02:17:02;;;;;;;17.48;6.10;;;;;;;12.86;100.00;101641.00;5203657;28;20056;-75
2022/10/28 02:19:53;;;;;;;17.13;5.55;;;;;;;12.80;100.00;101641.63;5162486;28;20496;-75
2022/10/28 02:22:31;;;;;;;17.02;5.53;;;;;;;12.80;100.00;101634.41;5203655;28;20107;-75
2022/10/28 02:25:18;;;;;;;19.98;8.05;;;;;;;12.75;100.00;101631.34;5204510;28;20543;-77
2022/10/28 02:27:58;;;;;;;15.15;6.18;;;;;;;12.75;100.00;101635.88;5205637;28;20029;-76
2022/10/28 02:30:33;;;;;;;22.33;7.32;;;;;;;12.81;100.00;101643.34;5205788;28;20040;-75
2022/10/28 02:33:09;;;;;;;14.35;5.80;;;;;;;12.72;100.00;101644.28;5200228;28;20495;-76
2022/10/28 02:35:54;;;;;;;18.10;6.18;;;;;;;12.63;100.00;101636.16;5203273;28;20047;-76
2022/10/28 02:38:39;;;;;;;15.77;6.75;;;;;;;12.62;100.00;101644.41;5202761;28;20036;-75
2022/10/28 02:41:18;;;;;;;18.25;6.15;;;;;;;12.56;100.00;101648.59;5203016;28;20045;-75
2022/10/28 02:43:54;;;;;;;18.63;8.02;;;;;;;12.50;100.00;101643.84;5203269;28;20030;-76
2022/10/28 02:46:27;;;;;;;20.83;7.63;;;;;;;12.42;100.00;101655.41;5202288;28;20033;-76
2022/10/28 02:49:03;;;;;;;15.63;5.63;;;;;;;12.37;100.00;101655.03;5202830;28;20049;-76
2022/10/28 02:51:39;;;;;;;16.58;6.65;;;;;;;12.32;100.00;101656.50;5203004;28;20546;-75
2022/10/28 02:54:26;;;;;;;15.48;6.47;;;;;;;12.29;100.00;101648.75;5202079;28;20033;-75
2022/10/28 02:57:19;;;;;;;12.02;5.70;;;;;;;12.29;100.00;101648.75;5202530;28;20033;-77
2022/10/28 02:59:59;;;;;;;14.30;6.22;;;;;;;12.27;100.00;101648.06;5203180;28;20033;-76
2022/10/28 03:02:30;;;;;;;17.20;5.57;;;;;;;12.25;100.00;101642.84;5203052;28;20112;-75
2022/10/28 03:05:03;;;;;;;18.08;6.10;;;;;;;12.22;100.00;101645.84;5202709;28;20029;-76
2022/10/28 03:07:34;;;;;;;12.23;5.70;;;;;;;12.18;100.00;101639.94;5202554;28;20021;-75
2022/10/28 03:10:05;;;;;;;16.77;6.90;;;;;;;12.15;100.00;101637.56;5203129;28;20036;-75
2022/10/28 03:12:35;;;;;;;20.35;6.13;;;;;;;12.13;100.00;101644.09;5203954;28;20017;-75
2022/10/28 03:15:06;;;;;;;18.10;6.15;;;;;;;12.10;100.00;101639.03;5207368;28;20026;-74
2022/10/28 03:17:36;;;;;;;12.98;5.35;;;;;;;12.07;100.00;101645.56;5206551;28;20048;-74
2022/10/28 03:20:07;;;;;;;22.13;5.80;;;;;;;12.05;100.00;101641.31;5205784;28;20025;-74
2022/10/28 03:22:38;;;;;;;13.95;5.15;;;;;;;12.04;100.00;101642.34;5205968;28;20037;-75
2022/10/28 03:25:09;;;;;;;22.95;7.22;;;;;;;12.04;100.00;101645.03;5206573;28;20047;-74
2022/10/28 03:27:40;;;;;;;14.20;5.93;;;;;;;12.05;100.00;101642.19;5206419;28;20040;-74
2022/10/28 03:30:10;;;;;;;15.75;5.68;;;;;;;12.05;100.00;101638.63;5206331;28;20232;-74
2022/10/28 03:32:41;;;;;;;21.58;6.22;;;;;;;12.03;100.00;101637.97;5203299;28;20478;-74
2022/10/28 03:35:12;;;;;;;17.08;6.13;;;;;;;11.98;100.00;101624.97;5207058;28;20029;-74
2022/10/28 03:37:43;;;;;;;20.58;6.28;;;;;;;11.96;100.00;101635.06;5206348;28;20031;-76
2022/10/28 03:40:13;;;;;;;13.57;5.78;;;;;;;11.92;100.00;101626.47;5206488;28;20499;-76
2022/10/28 03:42:44;;;;;;;19.63;6.45;;;;;;;11.91;100.00;101640.06;5206564;28;20041;-76
2022/10/28 03:45:14;;;;;;;21.63;7.55;;;;;;;11.92;100.00;101639.91;5206923;28;20048;-76
2022/10/28 03:47:45;;;;;;;14.63;6.53;;;;;;;11.96;100.00;101644.97;5204886;28;20036;-77
2022/10/28 03:50:16;;;;;;;17.08;6.70;;;;;;;11.94;100.00;101642.44;5207205;28;20552;-76
2022/10/28 03:52:46;;;;;;;19.90;7.25;;;;;;;11.93;100.00;101625.44;5205098;28;20034;-75
2022/10/28 03:55:18;;;;;;;13.48;6.32;;;;;;;11.92;100.00;101626.47;5206680;28;20080;-77
2022/10/28 03:57:48;;;;;;;13.18;5.38;;;;;;;11.87;100.00;101623.38;5205815;28;20029;-76
2022/10/28 04:00:20;;;;;;;14.38;6.50;;;;;;;11.84;100.00;101621.00;5206310;28;20033;-77
2022/10/28 04:02:51;;;;;;;22.65;6.40;;;;;;;11.82;100.00;101624.88;5206463;28;20036;-76
2022/10/28 04:05:22;;;;;;;17.38;6.70;;;;;;;11.78;100.00;101624.28;5204775;28;20033;-75
2022/10/28 04:07:53;;;;;;;16.77;6.88;;;;;;;11.75;100.00;101629.16;5205845;28;20380;-75
2022/10/28 04:10:23;;;;;;;22.83;7.07;;;;;;;11.72;100.00;101627.59;5206771;28;20076;-75
2022/10/28 04:12:59;;;;;;;17.33;6.90;;;;;;;11.72;100.00;101619.53;5206132;28;20604;-74
2022/10/28 04:15:30;;;;;;;21.65;6.93;;;;;;;11.73;100.00;101625.75;5206247;28;20029;-75
2022/10/28 04:18:01;;;;;;;22.00;6.95;;;;;;;11.74;100.00;101619.38;5205761;28;20103;-74
2022/10/28 04:20:32;;;;;;;15.50;6.82;;;;;;;11.72;100.00;101622.22;5206058;28;20498;-74
2022/10/28 04:23:02;;;;;;;23.10;7.47;;;;;;;11.71;100.00;101625.91;5205907;28;20427;-74
2022/10/28 04:25:33;;;;;;;21.77;7.10;;;;;;;11.70;100.00;101620.69;5204322;28;20059;-74
2022/10/28 04:28:03;;;;;;;23.13;7.22;;;;;;;11.70;100.00;101618.88;5205272;28;20421;-74
2022/10/28 04:30:34;;;;;;;25.75;7.70;;;;;;;11.70;100.00;101615.31;5205327;28;20076;-73
2022/10/28 04:33:04;;;;;;;21.05;6.28;;;;;;;11.67;100.00;101617.31;5202777;28;20531;-73
2022/10/28 04:35:38;;;;;;;14.20;6.70;;;;;;;11.64;100.00;101622.13;5205911;28;20480;-74
2022/10/28 04:38:09;;;;;;;16.30;7.15;;;;;;;11.62;100.00;101614.25;5205267;28;20400;-74
2022/10/28 04:40:40;;;;;;;17.65;6.15;;;;;;;11.61;100.00;101623.31;5205425;28;20108;-74
2022/10/28 04:43:11;;;;;;;17.05;6.10;;;;;;;11.60;100.00;101627.00;5205124;28;20112;-73
2022/10/28 04:45:41;;;;;;;15.32;5.78;;;;;;;11.59;100.00;101624.44;5205500;28;20029;-74
2022/10/28 04:48:11;;;;;;;12.18;5.63;;;;;;;11.59;100.00;101624.44;5204905;28;20024;-73
2022/10/28 04:50:42;;;;;;;17.02;6.55;;;;;;;11.61;100.00;101628.69;5205456;28;20010;-73
2022/10/28 04:53:12;;;;;;;21.60;6.10;;;;;;;11.65;100.00;101624.69;5204821;28;20045;-73
2022/10/28 04:55:43;;;;;;;16.98;5.22;;;;;;;11.64;100.00;101627.53;5205410;28;20024;-73
2022/10/28 04:58:14;;;;;;;13.38;6.38;;;;;;;11.62;100.00;101621.47;5204890;28;20014;-74
2022/10/28 05:00:44;;;;;;;15.07;6.28;;;;;;;11.61;100.00;101619.78;5205201;28;20036;-74
2022/10/28 05:03:15;;;;;;;16.17;5.78;;;;;;;11.57;100.00;101621.09;5205753;28;20032;-74
2022/10/28 05:05:46;;;;;;;21.15;7.22;;;;;;;11.49;100.00;101623.69;5203382;28;20036;-74
2022/10/28 05:08:16;;;;;;;14.52;5.97;;;;;;;11.45;100.00;101625.00;5204854;28;20116;-76
2022/10/28 05:10:49;;;;;;;15.25;5.63;;;;;;;11.43;100.00;101619.75;5204067;28;20100;-76
2022/10/28 05:13:20;;;;;;;19.05;7.50;;;;;;;11.42;100.00;101626.16;5205033;28;20029;-77
2022/10/28 05:15:50;;;;;;;17.27;6.40;;;;;;;11.44;100.00;101617.94;5204979;28;20370;-76
2022/10/28 05:18:21;;;;;;;19.73;7.40;;;;;;;11.44;100.00;101621.44;5204195;28;20037;-77
2022/10/28 05:20:53;;;;;;;22.70;6.82;;;;;;;11.45;100.00;101611.56;5204797;28;20037;-76
2022/10/28 05:23:24;;;;;;;15.30;6.15;;;;;;;11.46;100.00;101618.63;5204957;28;20071;-76
2022/10/28 05:25:54;;;;;;;16.52;6.65;;;;;;;11.48;100.00;101622.00;5204470;28;20502;-76
2022/10/28 05:28:25;;;;;;;15.43;6.38;;;;;;;11.53;100.00;101623.22;5204073;28;20109;-75
2022/10/28 05:30:55;;;;;;;15.52;7.00;;;;;;;11.58;100.00;101620.91;5203421;28;20033;-76
2022/10/28 05:33:26;;;;;;;14.95;6.97;;;;;;;11.54;100.00;101622.22;5201865;28;20025;-76
2022/10/28 05:35:58;;;;;;;15.20;6.13;;;;;;;11.53;100.00;101608.94;5204029;28;20017;-76
2022/10/28 05:38:28;;;;;;;14.23;6.15;;;;;;;11.51;100.00;101617.16;5203899;28;20022;-76
2022/10/28 05:40:59;;;;;;;21.73;6.47;;;;;;;11.50;100.00;101614.66;5204498;28;20442;-75
2022/10/28 05:43:29;;;;;;;12.07;5.80;;;;;;;11.46;100.00;101618.63;5190772;28;20037;-75
2022/10/28 05:46:01;;;;;;;17.63;6.32;;;;;;;11.45;100.00;101616.94;5204090;28;20400;-75
2022/10/28 05:48:32;;;;;;;20.88;7.15;;;;;;;11.46;100.00;101618.63;5204436;28;20400;-74
2022/10/28 05:51:02;;;;;;;17.85;6.65;;;;;;;11.44;100.00;101608.03;5204197;28;20030;-73
2022/10/28 05:53:33;;;;;;;20.88;7.28;;;;;;;11.48;100.00;101605.88;5204150;28;20029;-74
2022/10/28 05:56:03;;;;;;;20.55;7.55;;;;;;;11.49;100.00;101603.03;5203729;28;20024;-74
2022/10/28 05:58:34;;;;;;;19.30;7.32;;;;;;;11.49;100.00;101604.88;5203658;28;20032;-74
2022/10/28 06:01:07;;;;;;;15.85;6.28;;;;;;;11.49;100.00;101607.56;5203859;28;20021;-74
2022/10/28 06:03:38;;;;;;;22.38;6.93;;;;;;;11.48;100.00;101603.19;5204066;28;20126;-74
2022/10/28 06:06:08;;;;;;;20.63;6.53;;;;;;;11.42;100.00;101601.97;5203585;28;20063;-73
2022/10/28 06:08:39;;;;;;;17.65;7.05;;;;;;;11.40;100.00;101598.59;5203315;28;20021;-73
2022/10/28 06:11:09;;;;;;;21.23;7.25;;;;;;;11.38;100.00;101604.09;5204113;28;20100;-74
2022/10/28 06:13:40;;;;;;;16.95;7.38;;;;;;;11.37;100.00;101610.47;5202599;28;20064;-74
2022/10/28 06:16:10;;;;;;;17.40;5.65;;;;;;;11.35;100.00;101609.81;5203941;28;20068;-73
2022/10/28 06:18:41;;;;;;;19.77;6.47;;;;;;;11.35;100.00;101603.59;5202914;28;20496;-73
2022/10/28 06:21:11;;;;;;;17.88;6.43;;;;;;;11.33;100.00;101603.72;5203908;28;20428;-73
2022/10/28 06:23:42;;;;;;;19.13;7.00;;;;;;;11.33;100.00;101611.78;5203678;28;20033;-73
2022/10/28 06:26:13;;;;;;;16.65;6.03;;;;;;;11.37;100.00;101606.94;5203648;28;20056;-73
2022/10/28 06:28:46;;;;;;;19.52;6.93;;;;;;;11.40;100.00;101601.28;5185524;28;20034;-73
2022/10/28 06:31:16;;;;;;;12.80;6.55;;;;;;;11.40;100.00;101602.13;5191277;28;20049;-73
2022/10/28 06:33:47;;;;;;;18.75;6.38;;;;;;;11.38;100.00;101603.25;5184533;28;20056;-74
2022/10/28 06:36:17;;;;;;;20.10;6.57;;;;;;;11.35;100.00;101612.50;5185186;28;20022;-73
2022/10/28 06:38:48;;;;;;;15.45;6.20;;;;;;;11.35;100.00;101611.66;5183708;28;20022;-73
2022/10/28 06:41:18;;;;;;;11.45;5.20;;;;;;;11.34;100.00;101626.91;5184717;28;20076;-73
2022/10/28 06:43:48;;;;;;;16.95;6.28;;;;;;;11.37;100.00;101617.69;5192358;28;20029;-73
2022/10/28 06:46:19;;;;;;;10.32;4.53;;;;;;;11.39;100.00;101627.28;5189490;28;20037;-73
2022/10/28 06:48:50;;;;;;;13.55;5.28;;;;;;;11.42;100.00;101628.84;5183683;28;20168;-73
2022/10/28 06:51:20;;;;;;;13.13;5.30;;;;;;;11.46;100.00;101621.31;5187431;28;20040;-73
2022/10/28 06:53:51;;;;;;;17.90;6.40;;;;;;;11.51;100.00;101632.44;5188154;28;20032;-73
2022/10/28 06:56:22;;;;;;;14.75;5.72;;;;;;;11.58;100.00;101636.19;5185015;28;20443;-72
2022/10/28 06:58:53;;;;;;;10.13;4.43;;;;;;;11.61;100.00;101628.69;5194660;28;20026;-73
2022/10/28 07:01:24;;;;;;;19.58;5.68;;;;;;;11.71;100.00;101623.22;5185750;28;20037;-73
2022/10/28 07:03:55;;;;;;;20.65;5.72;;;;;;;11.79;100.00;101614.38;5195933;28;20412;-73
2022/10/28 07:06:25;;;;;;;17.60;6.65;;;;;;;11.87;100.00;101612.63;5190164;28;20043;-73
2022/10/28 07:08:56;;;;;;;26.67;7.05;;;;;;;11.97;100.00;101609.00;5188996;28;20057;-73
2022/10/28 07:11:26;;;;;;;16.30;5.90;;;;;;;12.04;100.00;101604.69;5183098;28;20029;-73
2022/10/28 07:13:57;;;;;;;13.25;6.30;;;;;;;12.13;100.00;101611.81;5184896;28;20023;-73
2022/10/28 07:16:27;;;;;;;27.70;7.53;;;;;;;12.31;100.00;101609.09;5182808;28;20026;-73
2022/10/28 07:18:58;;;;;;;19.25;6.70;;;;;;;12.54;100.00;101614.75;5193354;28;20500;-73
2022/10/28 07:21:28;;;;;;;16.05;6.82;;;;;;;12.78;100.00;101614.03;5182086;28;20288;-73
2022/10/28 07:23:59;;;;;;;20.55;7.38;;;;;;;13.08;100.00;101620.69;5183902;28;20101;-73
2022/10/28 07:26:29;;;;;;;24.65;7.07;;;;;;;13.45;100.00;101631.06;5197307;28;20051;-73
2022/10/28 07:29:00;;;;;;;19.02;7.72;;;;;;;13.83;100.00;101624.22;5201086;28;20846;-73
2022/10/28 07:31:30;;;;;;;14.85;6.82;;;;;;;14.32;100.00;101626.88;5197383;28;20040;-73
2022/10/28 07:34:01;;;;;;;16.23;6.40;;;;;;;14.93;100.00;101633.44;5201276;28;20361;-73
2022/10/28 07:36:31;;;;;;;21.40;6.43;;;;;;;15.40;100.00;101639.78;5199821;28;20017;-73
2022/10/28 07:39:02;;;;;;;15.95;6.68;;;;;;;15.82;100.00;101643.94;5200661;28;20028;-74
2022/10/28 07:41:33;;;;;;;15.98;5.93;;;;;;;16.17;100.00;101640.56;5200802;28;20025;-74
2022/10/28 07:44:03;;;;;;;23.30;6.25;;;;;;;16.59;100.00;101639.09;5200819;28;20534;-74
2022/10/28 07:46:34;;;;;;;22.48;6.50;;;;;;;17.01;100.00;101635.72;5187792;28;20041;-74
2022/10/28 07:49:04;;;;;;;16.25;5.40;;;;;;;17.39;100.00;101626.59;5188202;28;20022;-73
2022/10/28 07:51:35;;;;;;;19.15;5.82;;;;;;;17.69;100.00;101636.28;5181671;28;20179;-75
2022/10/28 07:54:05;;;;;;;22.92;5.53;;;;;;;17.99;100.00;101636.19;5182629;28;20025;-74
2022/10/28 07:56:36;;;;;;;18.17;5.93;;;;;;;18.09;100.00;101625.81;5192108;28;20033;-74
2022/10/28 07:59:06;;;;;;;15.07;4.95;;;;;;;18.19;100.00;101628.19;5182706;28;20026;-74
2022/10/28 08:01:37;;;;;;;13.23;5.78;;;;;;;18.23;100.00;101635.75;5187731;28;20044;-74
2022/10/28 08:04:07;;;;;;;24.58;5.82;;;;;;;18.40;100.00;101636.28;5185010;28;20018;-74
2022/10/28 08:06:39;;;;;;;18.77;5.40;;;;;;;18.48;100.00;101632.59;5184529;28;20410;-74
2022/10/28 08:09:10;;;;;;;23.40;5.57;;;;;;;18.46;100.00;101632.75;5183964;28;20026;-74
2022/10/28 08:11:40;;;;;;;15.27;5.47;;;;;;;18.66;100.00;101632.03;5195948;28;20025;-75
2022/10/28 08:14:11;;;;;;;16.90;5.28;;;;;;;18.73;100.00;101625.66;5184588;28;20489;-74
2022/10/28 08:16:41;;;;;;;13.15;5.68;;;;;;;18.71;100.00;101632.31;5198470;28;20033;-74
2022/10/28 08:19:12;;;;;;;18.67;4.82;;;;;;;18.67;100.00;101636.44;5195912;28;20440;-74
2022/10/28 08:21:42;;;;;;;22.85;5.05;;;;;;;18.58;100.00;101638.50;5186249;28;20052;-74
2022/10/28 08:24:13;;;;;;;20.88;4.90;;;;;;;18.61;100.00;101643.50;5196536;28;20088;-74
2022/10/28 08:26:43;;;;;;;15.07;5.13;;;;;;;18.67;100.00;101647.31;5203298;28;20025;-74
2022/10/28 08:29:14;;;;;;;17.15;6.25;;;;;;;18.63;100.00;101639.56;5204257;28;20064;-74
2022/10/28 08:31:44;;;;;;;15.30;5.60;;;;;;;18.68;100.00;101646.28;5200942;28;20025;-74
2022/10/28 08:34:15;;;;;;;19.90;5.88;;;;;;;18.63;100.00;101642.28;5203828;28;20459;-74
2022/10/28 08:36:45;;;;;;;17.63;5.85;;;;;;;18.70;100.00;101639.63;5204051;28;20035;-74
2022/10/28 08:39:16;;;;;;;23.38;5.85;;;;;;;18.64;100.00;101637.69;5204017;28;20025;-74
2022/10/28 08:41:57;;;;;;;18.80;5.80;;;;;;;18.62;100.00;101635.19;5204113;28;20076;-75
2022/10/28 08:44:40;;;;;;;17.85;5.55;;;;;;;18.68;100.00;101639.00;5203169;28;20117;-75
2022/10/28 08:47:48;;;;;;;21.20;6.35;;;;;;;18.69;100.00;101637.13;5190897;28;20069;-75
2022/10/28 08:50:22;;;;;;;21.65;6.60;;;;;;;18.73;100.00;101638.41;5185011;28;20108;-74
2022/10/28 08:52:57;;;;;;;16.23;5.72;;;;;;;18.83;100.00;101647.88;5184437;28;20036;-74
2022/10/28 08:55:42;;;;;;;18.75;5.50;;;;;;;18.99;100.00;101649.41;5184447;28;20024;-75
2022/10/28 08:58:24;;;;;;;21.90;5.57;;;;;;;19.13;100.00;101639.44;5191062;28;20369;-74
2022/10/28 09:00:58;;;;;;;21.90;6.88;;;;;;;19.16;100.00;101647.16;5188949;28;20014;-75
2022/10/28 09:03:36;;;;;;;25.13;5.65;;;;;;;19.02;100.00;101639.97;5183653;28;20141;-74
2022/10/28 09:06:09;;;;;;;18.80;6.53;;;;;;;18.94;100.00;101640.19;5184560;28;20025;-74
2022/10/28 09:08:43;;;;;;;14.82;5.65;;;;;;;18.88;100.00;101639.94;5196374;28;20028;-75
2022/10/28 09:11:56;;;;;;;15.00;5.50;;;;;;;18.80;100.00;101641.97;5183225;28;20024;-74
2022/10/28 09:14:44;;;;;;;23.52;6.78;;;;;;;18.93;100.00;101639.34;5177482;28;20123;-74
2022/10/28 09:17:36;;;;;;;19.52;6.15;;;;;;;19.58;100.00;101646.03;5186378;28;20030;-75
2022/10/28 09:20:19;;;;;;;24.77;5.72;;;;;;;20.16;100.00;101653.66;5184079;28;20025;-75
2022/10/28 09:23:06;;;;;;;19.17;5.72;;;;;;;20.80;100.00;101652.94;5195523;28;20022;-75
2022/10/28 09:25:52;;;;;;;20.05;4.65;;;;;;;21.27;100.00;101648.13;5196718;28;20034;-75
2022/10/28 09:28:39;;;;;;;23.20;5.43;;;;;;;21.40;100.00;101656.28;5203876;28;20075;-75
2022/10/28 09:31:34;;;;;;;19.95;5.20;;;;;;;21.64;100.00;101653.84;5202236;28;20052;-75
2022/10/28 09:34:36;;;;;;;17.27;5.03;;;;;;;21.65;100.00;101655.53;5194329;28;20033;-75
2022/10/28 09:37:15;;;;;;;17.30;5.47;;;;;;;21.38;100.00;101669.31;5190090;28;20033;-75
2022/10/28 09:39:51;;;;;;;29.98;5.70;;;;;;;20.91;100.00;101662.34;5202714;28;20017;-75
2022/10/28 09:42:29;;;;;;;20.80;5.28;;;;;;;20.57;100.00;101674.38;5202396;28;20025;-74
2022/10/28 09:45:05;;;;;;;17.45;4.93;;;;;;;20.82;100.00;101675.38;5201887;28;20035;-75
2022/10/28 09:47:40;;;;;;;17.38;4.82;;;;;;;20.86;100.00;101683.97;5201639;28;20523;-75
2022/10/28 09:50:20;;;;;;;14.15;4.65;;;;;;;21.20;100.00;101674.63;5202389;28;20127;-75
2022/10/28 09:53:13;;;;;;;16.45;5.25;;;;;;;21.36;100.00;101665.97;5202393;28;20100;-75
2022/10/28 09:55:44;;;;;;;21.30;5.57;;;;;;;21.52;100.00;101674.69;5202106;28;20028;-74
2022/10/28 09:58:16;;;;;;;17.48;4.38;;;;;;;21.63;100.00;101665.81;5201497;28;20017;-75
2022/10/28 10:00:46;;;;;;;18.20;5.40;;;;;;;21.60;100.00;101664.38;5202145;28;20159;-74
2022/10/28 10:03:17;;;;;;;23.67;5.18;;;;;;;21.76;100.00;101660.28;5201986;28;20108;-74
2022/10/28 10:05:50;;;;;;;18.92;5.07;;;;;;;21.84;100.00;101667.34;5201333;28;20036;-75
2022/10/28 10:08:21;;;;;;;16.40;5.22;;;;;;;21.93;100.00;101671.50;5201759;28;20126;-75
2022/10/28 10:10:59;;;;;;;17.70;4.70;;;;;;;21.94;100.00;101654.06;5201686;28;20290;-75
2022/10/28 10:13:38;;;;;;;19.10;5.28;;;;;;;21.92;100.00;101659.72;5201778;28;20021;-75
2022/10/28 10:16:17;;;;;;;15.18;4.45;;;;;;;21.90;100.00;101656.38;5201690;28;20543;-75
2022/10/28 10:18:53;;;;;;;20.63;5.47;;;;;;;21.88;100.00;101647.56;5201331;28;20021;-75
2022/10/28 10:21:43;;;;;;;20.58;5.22;;;;;;;21.87;100.00;101650.53;5201232;28;20028;-75
2022/10/28 10:24:34;;;;;;;21.23;4.85;;;;;;;21.83;100.00;101661.06;5201647;28;20475;-75
2022/10/28 10:27:18;;;;;;;16.85;4.10;;;;;;;21.90;100.00;101663.75;5199865;28;20108;-75
2022/10/28 10:29:51;;;;;;;13.05;4.35;;;;;;;22.17;100.00;101667.13;5201967;28;20029;-75
2022/10/28 10:32:25;;;;;;;18.67;4.35;;;;;;;22.39;100.00;101665.69;5198474;28;20472;-74
2022/10/28 10:35:00;;;;;;;18.88;4.60;;;;;;;22.43;100.00;101661.41;5201597;28;20048;-75
2022/10/28 10:37:33;;;;;;;;;;;;;;;22.54;100.00;101662.59;5202599;28;20029;-75
2022/10/28 10:40:32;;;;;;;20.85;4.78;;;;;;;22.53;100.00;101662.81;5203876;28;19909;-75
2022/10/28 10:43:34;;;;;;;21.90;4.32;;;;;;;22.36;100.00;101666.13;5201661;28;20412;-75
2022/10/28 10:46:13;;;;;;;20.08;4.47;;;;;;;22.44;100.00;101659.50;5201378;28;20116;-75
2022/10/28 10:48:44;;;;;;;21.35;4.65;;;;;;;22.57;100.00;101667.59;5200991;28;20029;-76
2022/10/28 10:51:21;;;;;;;15.48;4.50;;;;;;;22.78;100.00;101660.00;5198948;28;20083;-75
2022/10/28 10:53:56;;;;;;;17.25;4.63;;;;;;;22.86;100.00;101660.56;5200758;28;20294;-76
2022/10/28 10:56:31;;;;;;;20.80;4.60;;;;;;;23.10;100.00;101666.22;5187242;28;20116;-76
2022/10/28 10:59:10;;;;;;;15.18;4.20;;;;;;;23.17;100.00;101673.25;5200800;28;20025;-76
2022/10/28 11:01:40;;;;;;;17.48;4.43;;;;;;;23.26;100.00;101669.13;5200765;28;20360;-76
2022/10/28 11:04:17;;;;;;;15.38;3.85;;;;;;;23.45;100.00;101669.94;5199979;28;20017;-76
2022/10/28 11:06:53;;;;;;;20.83;5.10;;;;;;;23.36;100.00;101660.38;5200733;28;20025;-76
2022/10/28 11:09:34;;;;;;;13.80;4.40;;;;;;;23.41;100.00;101668.72;5200922;28;20285;-75
2022/10/28 11:12:35;;;;;;;18.75;5.00;;;;;;;23.28;100.00;101668.91;5200271;28;20102;-76
2022/10/28 11:15:24;;;;;;;9.98;4.22;;;;;;;23.19;100.00;101662.06;5191822;28;20555;-76
2022/10/28 11:18:00;;;;;;;15.82;3.50;;;;;;;23.11;100.00;101667.88;5200165;28;20033;-75
2022/10/28 11:20:42;;;;;;;17.30;4.07;;;;;;;23.12;100.00;101672.28;5200778;28;20041;-75
2022/10/28 11:23:37;;;;;;;10.50;3.80;;;;;;;23.09;100.00;101670.81;5200816;28;20052;-75
2022/10/28 11:26:12;;;;;;;22.73;3.63;;;;;;;23.11;100.00;101689.75;5200722;28;20075;-76
2022/10/28 11:28:50;;;;;;;21.77;4.20;;;;;;;23.01;100.00;101679.34;5199709;28;20029;-75
2022/10/28 11:31:39;;;;;;;20.27;4.00;;;;;;;22.95;100.00;101677.53;5195949;28;20053;-76
2022/10/28 11:34:49;;;;;;;18.30;3.78;;;;;;;22.90;100.00;101680.97;5182637;28;20026;-76
2022/10/28 11:37:36;;;;;;;19.20;3.70;;;;;;;22.90;100.00;101682.84;5184905;28;20036;-75
2022/10/28 11:40:18;;;;;;;20.13;3.70;;;;;;;22.85;100.00;101678.03;5199794;28;20030;-75
2022/10/28 11:42:59;;;;;;;17.85;4.13;;;;;;;22.86;100.00;101678.88;5192679;28;20061;-75
2022/10/28 11:45:31;;;;;;;21.33;4.85;;;;;;;23.00;100.00;101675.78;5197462;28;20021;-75
2022/10/28 11:48:40;;;;;;;20.98;4.45;;;;;;;22.72;100.00;101680.91;5201528;28;20098;-75